Tiempo atmosférico en la estación meteorológica de Medina Sidonia, Cádiz (90 m.)



Fecha
DESCASC
Temp. máxima en grados centígrados (hora)
DESCASC
Temp. mínima en grados centígrados (hora)
DESCASC
Temp. media en grados centígrados
DESCASC
Racha de viento máxima en m/sg (hora)
DESCASC
Velocidad máxima media en intervalos de 10 minutos(hora)
DESCASC
Precipitaciones diarias en mm
DESCASC
Precipitaciones de 00:00 a 06:00 en mm
DESCASC
Precipitaciones de 06:00 a 12:00 en mm
DESCASC
Precipitaciones de 12:00 a 18:00 en mm
DESCASC
Precipitaciones de 18:00 a 24:00 en mm
DESCASC
14-12-2019 16.8 (13:00) 10.2 (23:59) 13.5 9.17 (12:40) 4.72 (12:20) 0 0 0 0 0
13-12-2019 18.1 (15:50) 14.4 (00:00) 16.3 11.39 (13:40) 7.78 (14:20) 0 0 0 0 0
12-12-2019 15.5 (14:40) 6 (08:20) 10.8 11.39 (19:10) 7.5 (15:10) 0 0 0 0 0
11-12-2019 18 (14:30) 5.2 (00:00) 11.6 9.17 (15:50) 6.39 (15:00) 0.2 0.2 0 0 0
10-12-2019 18.2 (16:10) 5.5 (00:00) 11.9 4.17 (13:50) 2.78 (12:40) 0 0 0 0 0
09-12-2019 18.8 (14:00) 7.6 (00:00) 13.2 6.67 (14:50) 3.61 (12:40) 0 0 0 0 0
08-12-2019 18.6 (14:20) 5.2 (00:00) 11.9 6.39 (17:10) 5 (17:10) 0 0 0 0 0
07-12-2019 20 (15:50) 9.3 (00:00) 14.7 8.33 (12:40) 6.11 (12:30) 0 0 0 0 0
06-12-2019 18.8 (14:00) 13.1 (00:00) 15.9 13.33 (12:30) 10.28 (12:30) 0 0 0 0 0
05-12-2019 16.9 (14:00) 5.9 (00:00) 11.4 13.61 (23:30) 9.17 (23:30) 0.2 0.2 0 0 0
04-12-2019 15.7 (12:50) 6.9 (00:00) 11.3 10 (13:10) 6.94 (15:10) 0 0 0 0 0
03-12-2019 18.4 (16:10) 9.3 (00:00) 13.8 7.22 (01:10) 4.44 (01:10) 1.8 1.8 0 0 0
02-12-2019 14.7 (14:10) 9.3 (00:00) 12 10 (15:40) 6.94 (15:40) 5.2 0 0.2 1.4 3.6
01-12-2019 17.4 (13:30) 12.2 (00:00) 14.8 10.28 (14:30) 6.67 (14:20) 5.6 2 0 3.6 0
30-11-2019 20.6 (14:40) 7.5 (00:00) 14.1 7.22 (16:40) 5.83 (16:50) 0 0 0 0 0
29-11-2019 21 (16:00) 11.6 (00:00) 16.3 7.5 (13:10) 4.17 (13:10) 0 0 0 0 0
28-11-2019 20 (16:00) 10.2 (00:00) 15.1 6.94 (16:50) 5.28 (17:10) 0.4 0.2 0.2 0 0
27-11-2019 19.3 (12:50) 12 (00:00) 15.6 7.78 (02:30) 5 (01:10) 1.6 1.6 0 0 0
26-11-2019 19.3 (15:30) 15.1 (00:00) 17.2 8.33 (13:00) 5.28 (13:00) 0.4 0 0 0.4 0
25-11-2019 19.3 (14:40) 7.2 (00:00) 13.2 9.44 (16:10) 6.94 (15:00) 0 0 0 0 0
24-11-2019 16.5 (14:40) 6.3 (00:00) 11.4 7.78 (14:50) 5.83 (14:50) 0 0 0 0 0
23-11-2019 16.3 (13:30) 10.9 (00:00) 13.6 13.61 (11:50) 8.61 (13:50) 0.8 0 0.8 0 0
22-11-2019 18.2 (15:30) 15.2 (00:00) 16.7 17.5 (18:30) 12.22 (20:20) 14.8 1.6 0.8 2 10.4
21-11-2019 16.9 (13:00) 10.4 (00:00) 13.6 10 (15:50) 5.83 (16:00) 21.2 2.8 11 6 1.4
20-11-2019 13.7 (12:50) 3.6 (00:00) 8.6 11.94 (15:00) 6.39 (14:50) 5.2 0 3.4 1.8 0
19-11-2019 16.1 (12:40) 3.4 (00:00) 9.8 6.67 (15:30) 4.72 (14:50) 0 0 0 0 0
18-11-2019 15.8 (16:00) 7.5 (00:00) 11.7 13.33 (02:50) 8.89 (03:40) 4.6 4.6 0 0 0
17-11-2019 15.5 (16:40) 1.4 (00:00) 8.4 9.44 (23:50) 6.11 (14:50) 1 0 0 1 0
16-11-2019 14.5 (15:30) 3.1 (00:00) 8.8 8.06 (15:50) 5.83 (16:00) 0 0 0 0 0

Gráficas

Temp. máximas Temp. mínimas Temp. medias Precipitaciones Rachas de viento máximas Velocidades máximas media en intervalos de 10 minutos

Datos horarios

Fecha y hora oficial Temperatura (ºC) Velocidad del viento (km/h) Dirección del viento Racha (km/h) Dirección de racha Precipitación (mm) Presión (hPa) Tendencia (hPa) Humedad (%)
2019-12-15 23:00:00 10.2 0 Calma 4 Sur 0 -- -- 90
2019-12-15 22:00:00 10.6 0 Calma 5 Sur 0 -- -- 90
2019-12-15 21:00:00 10.6 0 Calma 3 Oeste 0 -- -- 84
2019-12-15 20:00:00 12.2 4 Este 10 Sudoeste 0 -- -- 83
2019-12-15 19:00:00 13.4 7 Sudoeste 10 Sur 0 -- -- 79
2019-12-15 18:00:00 15.5 2 Sudeste 4 Sudeste 0 -- -- 71
2019-12-15 17:00:00 17 2 Sur 8 Sudeste 0 -- -- 64
2019-12-15 16:00:00 17.1 3 Noroeste 9 Oeste 0 -- -- 63
2019-12-15 15:00:00 16.9 2 Noroeste 6 Noroeste 0 -- -- 63
2019-12-15 14:00:00 16.2 3 Oeste 7 Noroeste 0 -- -- 62
2019-12-15 13:00:00 15.5 5 Noroeste 12 Oeste 0 -- -- 63
2019-12-15 12:00:00 14.5 5 Oeste 10 Oeste 0 -- -- 70
2019-12-15 11:00:00 12.4 0 Calma 5 Este 0 -- -- 96
2019-12-15 10:00:00 9.7 0 Calma 5 Oeste 0 -- -- 98
2019-12-15 09:00:00 7.3 3 Oeste 5 Oeste 0 -- -- 97
2019-12-15 08:00:00 6.1 2 Oeste 4 Oeste 0 -- -- 95
2019-12-15 07:00:00 7 2 Oeste -- -- 0 -- -- 95
2019-12-15 06:00:00 7.3 0 Calma 3 Sudeste 0 -- -- 94
2019-12-15 05:00:00 7.6 0 Calma 4 Noroeste 0 -- -- 94
2019-12-15 04:00:00 8 2 Este 7 Este 0 -- -- 94
2019-12-15 03:00:00 8.2 4 Este 6 Este 0 -- -- 92
2019-12-15 02:00:00 9.7 0 Calma 8 Norte 0 -- -- 91
2019-12-15 01:00:00 10.4 3 Noroeste 7 Noroeste 0 -- -- 90
2019-12-15 00:00:00 10.2 2 Norte 13 Oeste 0 -- -- 89
2019-12-14 23:00:00 10.7 13 Oeste 19 Oeste 0 -- -- 85
2019-12-14 22:00:00 10.7 13 Oeste 17 Oeste 0 -- -- 85
2019-12-14 21:00:00 11.6 16 Oeste 19 Oeste 0 -- -- 82
2019-12-14 20:00:00 11.8 15 Oeste 19 Oeste 0 -- -- 81
2019-12-14 19:00:00 12.9 14 Oeste 21 Noroeste 0 -- -- 77
2019-12-14 18:00:00 14.7 13 Noroeste 31 Noroeste 0 -- -- 69
2019-12-14 17:00:00 15.7 10 Noroeste 28 Noroeste 0 -- -- 60
2019-12-14 16:00:00 15.8 15 Noroeste 27 Noroeste 0 -- -- 57
2019-12-14 15:00:00 15.9 14 Noroeste 32 Noroeste 0 -- -- 58
2019-12-14 14:00:00 16.5 14 Noroeste 30 Noroeste 0 -- -- 59
2019-12-14 13:00:00 16.8 11 Noroeste 33 Norte 0 -- -- 59
2019-12-14 12:00:00 16.1 12 Noroeste 28 Noroeste 0 -- -- 61
2019-12-14 11:00:00 14.6 10 Noroeste 23 Noroeste 0 -- -- 77
2019-12-14 10:00:00 13.1 12 Noroeste 21 Noroeste 0 -- -- 88
2019-12-14 09:00:00 11.8 9 Noroeste 15 Oeste 0 -- -- 91
2019-12-14 08:00:00 12.3 12 Noroeste 18 Oeste 0 -- -- 91
2019-12-14 07:00:00 12.1 12 Oeste 17 Oeste 0 -- -- 92
2019-12-14 06:00:00 12 10 Oeste 17 Noroeste 0 -- -- 90
2019-12-14 05:00:00 12.3 10 Noroeste 17 Noroeste 0 -- -- 90
2019-12-14 04:00:00 12.3 9 Noroeste 20 Oeste 0 -- -- 89
2019-12-14 03:00:00 12.9 12 Oeste 19 Oeste 0 -- -- 86
2019-12-14 02:00:00 14 12 Oeste 20 Oeste 0 -- -- 83
2019-12-14 01:00:00 14.6 13 Noroeste 19 Noroeste 0 -- -- 84
2019-12-14 00:00:00 14.9 11 Noroeste 24 Oeste 0 -- -- 85
2019-12-13 23:00:00 15.3 17 Oeste 26 Oeste 0 -- -- 84
2019-12-13 22:00:00 15.4 15 Oeste 27 Oeste 0 -- -- 85
2019-12-13 21:00:00 15.4 15 Oeste 30 Oeste 0 -- -- 86
2019-12-13 20:00:00 15 13 Oeste 23 Oeste 0 -- -- 86
2019-12-13 19:00:00 15.1 13 Oeste 28 Oeste 0 -- -- 83
2019-12-13 18:00:00 16 18 Oeste 29 Oeste 0 -- -- 78
2019-12-13 17:00:00 16.7 20 Noroeste 36 Oeste 0 -- -- 71
2019-12-13 16:00:00 17.8 21 Noroeste 34 Oeste 0 -- -- 67
2019-12-13 15:00:00 17.4 23 Oeste 40 Oeste 0 -- -- 68
2019-12-13 14:00:00 17.6 24 Oeste 41 Oeste 0 -- -- 72
2019-12-13 13:00:00 17 22 Oeste 38 Oeste 0 -- -- 78
2019-12-13 12:00:00 16.2 17 Oeste 30 Oeste 0 -- -- 82
2019-12-13 11:00:00 15.5 18 Oeste 25 Oeste 0 -- -- 88
2019-12-13 10:00:00 14.9 13 Oeste 30 Oeste 0 -- -- 89
2019-12-13 09:00:00 14.8 17 Oeste 31 Noroeste 0 -- -- 88
2019-12-13 08:00:00 14.7 18 Oeste 32 Oeste 0 -- -- 90
2019-12-13 07:00:00 14.9 20 Oeste 34 Oeste 0 -- -- 88
2019-12-13 06:00:00 15.1 24 Oeste 37 Oeste 0 -- -- 86
2019-12-13 05:00:00 15 21 Oeste 36 Noroeste 0 -- -- 85
2019-12-13 04:00:00 15 19 Oeste 31 Oeste 0 -- -- 84
2019-12-13 03:00:00 15 18 Oeste 37 Oeste 0 -- -- 82
2019-12-13 02:00:00 14.9 21 Oeste 39 Oeste 0 -- -- 80
2019-12-13 01:00:00 14.7 17 Oeste 34 Oeste 0 -- -- 80
2019-12-13 00:00:00 14.4 17 Oeste 31 Noroeste 0 -- -- 81
2019-12-12 23:00:00 14.2 17 Oeste 28 Oeste 0 -- -- 81
2019-12-12 22:00:00 14 16 Oeste 26 Sudoeste 0 -- -- 81
2019-12-12 21:00:00 13.8 13 Oeste 31 Oeste 0 -- -- 80
2019-12-12 20:00:00 14.4 22 Oeste 41 Oeste 0 -- -- 75
2019-12-12 19:00:00 14.5 22 Oeste 32 Oeste 0 -- -- 72
2019-12-12 18:00:00 14.4 21 Oeste 33 Oeste 0 -- -- 67
2019-12-12 17:00:00 14.4 21 Oeste 39 Oeste 0 -- -- 65
2019-12-12 16:00:00 15 24 Oeste 39 Oeste 0 -- -- 61
2019-12-12 15:00:00 15.4 25 Oeste 39 Oeste 0 -- -- 61
2019-12-12 14:00:00 15 16 Noroeste 35 Noroeste 0 -- -- 64
2019-12-12 13:00:00 14.5 18 Noroeste 32 Noroeste 0 -- -- 65
2019-12-12 12:00:00 13 15 Noroeste 29 Noroeste 0 -- -- 71
2019-12-12 11:00:00 10.8 15 Oeste 26 Noroeste 0 -- -- 74
2019-12-12 10:00:00 8.4 14 Noroeste 22 Noroeste 0 -- -- 76
2019-12-12 09:00:00 6.2 3 Noroeste 23 Noroeste 0 -- -- 80
2019-12-12 08:00:00 6.1 4 Norte 14 Noroeste 0 -- -- 81
2019-12-12 07:00:00 7 6 Noroeste 14 Noroeste 0 -- -- 78
2019-12-12 06:00:00 6.9 6 Noroeste 16 Noroeste 0 -- -- 80
2019-12-12 05:00:00 7.8 7 Noroeste 17 Norte 0 -- -- 76
2019-12-12 04:00:00 8.2 7 Norte 22 Noroeste 0 -- -- 77
2019-12-12 03:00:00 8.4 10 Noroeste 20 Noroeste 0 -- -- 78
2019-12-12 02:00:00 8.7 8 Noroeste 26 Noroeste 0 -- -- 77
2019-12-12 01:00:00 9.4 8 Noroeste 21 Noroeste 0 -- -- 78
2019-12-12 00:00:00 10.9 11 Noroeste 22 Noroeste 0 -- -- 75
2019-12-11 23:00:00 10.7 9 Noroeste 18 Norte 0 -- -- 77
2019-12-11 22:00:00 11.2 8 Noroeste 24 Noroeste 0 -- -- 78
2019-12-11 21:00:00 11.8 15 Noroeste 24 Noroeste 0 -- -- 77
2019-12-11 20:00:00 12.6 17 Oeste 29 Oeste 0 -- -- 82
2019-12-11 19:00:00 13.6 21 Oeste 28 Noroeste 0 -- -- 82
2019-12-11 18:00:00 14.6 16 Noroeste 30 Oeste 0 -- -- 81
2019-12-11 17:00:00 15 19 Noroeste 32 Noroeste 0 -- -- 79
2019-12-11 16:00:00 15.7 18 Oeste 33 Oeste 0 -- -- 75
2019-12-11 15:00:00 16.9 23 Oeste 32 Oeste 0 -- -- 59
2019-12-11 14:00:00 17 18 Oeste 28 Oeste 0 -- -- 52
2019-12-11 13:00:00 16.5 18 Noroeste 27 Oeste 0 -- -- 52
2019-12-11 12:00:00 14.4 22 Oeste 30 Oeste 0 -- -- 77
2019-12-11 11:00:00 9.8 4 Este 6 Este 0 -- -- 98
2019-12-11 10:00:00 7.6 0 Calma 4 Este 0 -- -- 98
2019-12-11 09:00:00 6.2 0 Calma 4 Este 0 -- -- 98
2019-12-11 08:00:00 5.6 0 Calma -- -- 0 -- -- 97
2019-12-11 07:00:00 5.4 0 Calma 2 Este 0 -- -- 97
2019-12-11 06:00:00 5.5 0 Calma 2 Sudoeste 0 -- -- 96
2019-12-11 05:00:00 5.9 0 Calma 5 Este 0.2 -- -- 96
2019-12-11 04:00:00 6.7 2 Este 4 Este 0 -- -- 96
2019-12-11 03:00:00 6.5 0 Calma 2 Oeste 0 -- -- 96
2019-12-11 02:00:00 6.3 0 Calma 4 Nordeste 0 -- -- 95
2019-12-11 01:00:00 6.4 3 Oeste 4 Noroeste 0 -- -- 91
2019-12-11 00:00:00 7.2 0 Calma 4 Oeste 0 -- -- 90
2019-12-10 23:00:00 8.3 2 Oeste 6 Sudeste 0 -- -- 89
2019-12-10 22:00:00 9.7 0 Calma 12 Sudoeste 0 -- -- 90
2019-12-10 21:00:00 10.8 3 Oeste 10 Sudoeste 0 -- -- 88
2019-12-10 20:00:00 11.9 2 Noroeste 6 Oeste 0 -- -- 80
2019-12-10 19:00:00 12.8 3 Oeste 8 Oeste 0 -- -- 75
2019-12-10 18:00:00 15 4 Oeste 9 Noroeste 0 -- -- 69
2019-12-10 17:00:00 18.1 6 Noroeste 14 Noroeste 0 -- -- 59
2019-12-10 16:00:00 18.1 6 Noroeste 15 Noroeste 0 -- -- 61
2019-12-10 15:00:00 17 3 Sudeste 14 Este 0 -- -- 70
2019-12-10 14:00:00 15.5 9 Sudeste 15 Sudeste 0 -- -- 76
2019-12-10 13:00:00 12.5 8 Sudeste 14 Sudeste 0 -- -- 95
2019-12-10 12:00:00 9.8 4 Sudeste 7 Este 0 -- -- 98
2019-12-10 11:00:00 7.5 0 Calma 4 Este 0 -- -- 98
2019-12-10 10:00:00 6.2 0 Calma 6 Sudeste 0 -- -- 97
2019-12-10 09:00:00 5.6 2 Sudeste 7 Sur 0 -- -- 97
2019-12-10 08:00:00 5.7 0 Calma 4 Oeste 0 -- -- 97
2019-12-10 07:00:00 6.1 0 Calma 2 Sudoeste 0 -- -- 97
2019-12-10 06:00:00 5.8 2 Este 5 Nordeste 0 -- -- 96
2019-12-10 05:00:00 6.4 0 Calma 6 Este 0 -- -- 96
2019-12-10 04:00:00 8.5 0 Calma 9 Oeste 0 -- -- 93
2019-12-10 03:00:00 8.5 3 Este 10 Noroeste 0 -- -- 92
2019-12-10 02:00:00 10.6 3 Oeste 13 Oeste 0 -- -- 90
2019-12-10 01:00:00 9.5 3 Sudeste 9 Norte 0 -- -- 92
2019-12-10 00:00:00 11.1 0 Calma 8 Noroeste 0 -- -- 87
2019-12-09 23:00:00 12.1 6 Noroeste 19 Oeste 0 -- -- 85
2019-12-09 22:00:00 12.3 7 Noroeste 24 Norte 0 -- -- 84
2019-12-09 21:00:00 12.8 9 Noroeste 15 Oeste 0 -- -- 82
2019-12-09 20:00:00 14 4 Noroeste 11 Noroeste 0 -- -- 78
2019-12-09 19:00:00 14.9 5 Noroeste 14 Norte 0 -- -- 75
2019-12-09 18:00:00 16.8 8 Norte 18 Norte 0 -- -- 71
2019-12-09 17:00:00 17.4 8 Norte 21 Noroeste 0 -- -- 72
2019-12-09 16:00:00 17.9 11 Noroeste 24 Noroeste 0 -- -- 69
2019-12-09 15:00:00 18.4 11 Noroeste 24 Noroeste 0 -- -- 67
2019-12-09 14:00:00 18.8 10 Noroeste 24 Noroeste 0 -- -- 67
2019-12-09 13:00:00 18.3 12 Noroeste 24 Noroeste 0 -- -- 72
2019-12-09 12:00:00 17 11 Noroeste 21 Noroeste 0 -- -- 79
2019-12-09 11:00:00 15.3 8 Noroeste 16 Noroeste 0 -- -- 87
2019-12-09 10:00:00 12.7 4 Noroeste 10 Nordeste 0 -- -- 97
2019-12-09 09:00:00 10.6 5 Oeste 7 Oeste 0 -- -- 96
2019-12-09 08:00:00 9.8 2 Sudoeste 7 Nordeste 0 -- -- 95
2019-12-09 07:00:00 9.5 2 Oeste 2 Oeste 0 -- -- 95
2019-12-09 06:00:00 9 0 Calma 3 Oeste 0 -- -- 96
2019-12-09 05:00:00 7.9 2 Oeste 4 Oeste 0 -- -- 96
2019-12-09 04:00:00 7.9 0 Calma 4 Nordeste 0 -- -- 93
2019-12-09 03:00:00 8.3 0 Calma 3 Nordeste 0 -- -- 94
2019-12-09 02:00:00 8.8 0 Calma 4 Este 0 -- -- 93
2019-12-09 01:00:00 9.5 0 Calma 4 Oeste 0 -- -- 92
2019-12-09 00:00:00 9.5 0 Calma 2 Oeste 0 -- -- 91
2019-12-08 23:00:00 9.6 3 Oeste 4 Oeste 0 -- -- 90
2019-12-08 22:00:00 10.3 3 Este 6 Noroeste 0 -- -- 90
2019-12-08 21:00:00 11.3 0 Calma 5 Este 0 -- -- 86
2019-12-08 20:00:00 12.1 5 Nordeste 14 Oeste 0 -- -- 85
2019-12-08 19:00:00 12.7 3 Oeste 15 Oeste 0 -- -- 83
2019-12-08 18:00:00 14.2 14 Oeste 23 Oeste 0 -- -- 75
2019-12-08 17:00:00 16.2 17 Oeste 22 Oeste 0 -- -- 68
2019-12-08 16:00:00 17.8 16 Oeste 21 Oeste 0 -- -- 58
2019-12-08 15:00:00 18.5 14 Oeste 23 Oeste 0 -- -- 56
2019-12-08 14:00:00 18.5 14 Oeste 21 Oeste 0 -- -- 59
2019-12-08 13:00:00 17.5 7 Sudoeste 14 Sudoeste 0 -- -- 67
2019-12-08 12:00:00 15.2 6 Sudeste 9 Este 0 -- -- 79
2019-12-08 11:00:00 11.8 4 Este 6 Este 0 -- -- 89
2019-12-08 10:00:00 8.3 3 Este 4 Este 0 -- -- 96
2019-12-08 09:00:00 5.4 0 Calma 2 Este 0 -- -- 96
2019-12-08 08:00:00 5.4 0 Calma 3 Este 0 -- -- 96
2019-12-08 07:00:00 5.7 2 Oeste 3 Oeste 0 -- -- 96
2019-12-08 06:00:00 6.2 0 Calma 0 Calma 0 -- -- 96
2019-12-08 05:00:00 6.6 0 Calma 2 Oeste 0 -- -- 96
2019-12-08 04:00:00 7.1 0 Calma 5 Oeste 0 -- -- 96
2019-12-08 03:00:00 7.2 3 Oeste 5 Noroeste 0 -- -- 94
2019-12-08 02:00:00 8 3 Oeste 5 Noroeste 0 -- -- 92
2019-12-08 01:00:00 8.4 2 Oeste 3 Oeste 0 -- -- 93
2019-12-08 00:00:00 9.3 3 Noroeste 5 Noroeste 0 -- -- 93
2019-12-07 23:00:00 10.1 2 Noroeste 5 Noroeste 0 -- -- 91
2019-12-07 22:00:00 10.7 3 Noroeste 4 Noroeste 0 -- -- 89
2019-12-07 21:00:00 11.7 0 Calma 5 Noroeste 0 -- -- 85
2019-12-07 20:00:00 12.7 4 Noroeste 8 Noroeste 0 -- -- 82
2019-12-07 19:00:00 14.8 2 Oeste 6 Noroeste 0 -- -- 76
2019-12-07 18:00:00 17.3 4 Sur 10 Sur 0 -- -- 67
2019-12-07 17:00:00 19.1 5 Sur 16 Sudeste 0 -- -- 59
2019-12-07 16:00:00 19.8 9 Sudeste 19 Sudeste 0 -- -- 57
2019-12-07 15:00:00 19.5 10 Sudeste 24 Este 0 -- -- 54
2019-12-07 14:00:00 19 8 Sudeste 24 Este 0 -- -- 60
2019-12-07 13:00:00 18.6 19 Este 30 Este 0 -- -- 60
2019-12-07 12:00:00 17.8 6 Nordeste 17 Nordeste 0 -- -- 57
2019-12-07 11:00:00 16 10 Nordeste 14 Nordeste 0 -- -- 67
2019-12-07 10:00:00 12.5 3 Noroeste 6 Oeste 0 -- -- 81
2019-12-07 09:00:00 9.5 3 Noroeste 5 Noroeste 0 -- -- 86
2019-12-07 08:00:00 10 3 Oeste 5 Sudoeste 0 -- -- 88
2019-12-07 07:00:00 11.3 0 Calma 9 Nordeste 0 -- -- 82
2019-12-07 06:00:00 12.2 4 Este 14 Este 0 -- -- 82
2019-12-07 05:00:00 12.3 11 Nordeste 19 Este 0 -- -- 83
2019-12-07 04:00:00 12.4 8 Nordeste 15 Este 0 -- -- 82
2019-12-07 03:00:00 12.7 13 Nordeste 18 Este 0 -- -- 82
2019-12-07 02:00:00 13.8 16 Este 28 Este 0 -- -- 78
2019-12-07 01:00:00 14 19 Este 27 Este 0 -- -- 78
2019-12-07 00:00:00 13.7 15 Este 22 Este 0 -- -- 79
2019-12-06 23:00:00 13.5 5 Sudeste 24 Sudeste 0 -- -- 79
2019-12-06 22:00:00 14.4 24 Sudeste 44 Este 0 -- -- 75
2019-12-06 21:00:00 14.5 17 Este 34 Este 0 -- -- 74
2019-12-06 20:00:00 14.3 15 Sudeste 24 Sudeste 0 -- -- 74
2019-12-06 19:00:00 14.9 13 Sudeste 28 Sudeste 0 -- -- 70
2019-12-06 18:00:00 15.9 18 Sudeste 40 Este 0 -- -- 66
2019-12-06 17:00:00 17.1 24 Este 41 Este 0 -- -- 62
2019-12-06 16:00:00 17.9 25 Este 41 Este 0 -- -- 61
2019-12-06 15:00:00 18.4 31 Este 43 Sudeste 0 -- -- 60
2019-12-06 14:00:00 18.8 30 Este 47 Este 0 -- -- 60
2019-12-06 13:00:00 18.1 34 Este 48 Este 0 -- -- 63
2019-12-06 12:00:00 17.4 28 Este 40 Este 0 -- -- 64
2019-12-06 11:00:00 17 28 Este 42 Este 0 -- -- 63
2019-12-06 10:00:00 15.8 12 Este 24 Este 0 -- -- 68
2019-12-06 09:00:00 13.1 4 Norte 18 Este 0 -- -- 77
2019-12-06 08:00:00 13.6 7 Este 32 Este 0 -- -- 76
2019-12-06 07:00:00 13.7 9 Este 34 Este 0 -- -- 76
2019-12-06 06:00:00 13.8 15 Este 28 Este 0 -- -- 76
2019-12-06 05:00:00 13.4 13 Este 26 Este 0 -- -- 79
2019-12-06 04:00:00 13.7 18 Este 28 Este 0 -- -- 78
2019-12-06 03:00:00 13.1 12 Este 36 Este 0 -- -- 80
2019-12-06 02:00:00 13.5 12 Este 27 Este 0 -- -- 80
2019-12-06 01:00:00 13.5 17 Este 41 Este 0 -- -- 80
2019-12-06 00:00:00 13.9 27 Este 49 Este 0 -- -- 79
2019-12-05 23:00:00 13.9 24 Este 37 Este 0 -- -- 76
2019-12-05 22:00:00 13.8 22 Este 34 Este 0 -- -- 74
2019-12-05 21:00:00 13.2 7 Este 18 Nordeste 0 -- -- 73
2019-12-05 20:00:00 14 11 Nordeste 21 Este 0 -- -- 65
2019-12-05 19:00:00 14.2 13 Este 23 Este 0 -- -- 61
2019-12-05 18:00:00 15 15 Este 33 Este 0 -- -- 65
2019-12-05 17:00:00 15.7 24 Este 34 Este 0 -- -- 58
2019-12-05 16:00:00 16.8 23 Este 32 Este 0 -- -- 63
2019-12-05 15:00:00 16.5 20 Este 29 Este 0 -- -- 62
2019-12-05 14:00:00 16.9 19 Este 30 Este 0 -- -- 59
2019-12-05 13:00:00 16.3 13 Este 20 Este 0 -- -- 51
2019-12-05 12:00:00 15 9 Nordeste 15 Nordeste 0 -- -- 55
2019-12-05 11:00:00 12.9 3 Nordeste 16 Nordeste 0 -- -- 68
2019-12-05 10:00:00 9.2 3 Nordeste 22 Nordeste 0 -- -- 84
2019-12-05 09:00:00 7.2 3 Sur 8 Sudoeste 0 -- -- 91
2019-12-05 08:00:00 6.3 4 Noroeste 10 Noroeste 0 -- -- 94
2019-12-05 07:00:00 6.2 3 Oeste 5 Este 0 -- -- 89
2019-12-05 06:00:00 7.4 0 Calma 6 Noroeste 0 -- -- 88
2019-12-05 05:00:00 8.7 3 Oeste 6 Oeste 0 -- -- 84
2019-12-05 04:00:00 9.5 0 Calma 7 Noroeste 0 -- -- 89
2019-12-05 03:00:00 9.8 2 Oeste 8 Nordeste 0 -- -- 90
2019-12-05 02:00:00 9.8 0 Calma 5 Sudoeste 0.2 -- -- 88
2019-12-05 01:00:00 10.3 0 Calma 5 Nordeste 0 -- -- 88
2019-12-05 00:00:00 10.4 3 Oeste 5 Oeste 0 -- -- 88
2019-12-04 23:00:00 10.5 2 Oeste 3 Oeste 0 -- -- 86
2019-12-04 22:00:00 10.7 2 Norte 4 Nordeste 0 -- -- 85
2019-12-04 21:00:00 10.8 2 Este 6 Nordeste 0 -- -- 87
2019-12-04 20:00:00 10.8 3 Nordeste 5 Oeste 0 -- -- 83
2019-12-04 19:00:00 10.9 3 Oeste 7 Oeste 0 -- -- 78
2019-12-04 18:00:00 12.6 6 Oeste 19 Noroeste 0 -- -- 68
2019-12-04 17:00:00 13.6 14 Oeste 29 Oeste 0 -- -- 60
2019-12-04 16:00:00 14 18 Oeste 33 Sudoeste 0 -- -- 58
2019-12-04 15:00:00 14.8 23 Oeste 33 Oeste 0 -- -- 50
2019-12-04 14:00:00 15.3 19 Noroeste 36 Sudoeste 0 -- -- 50
2019-12-04 13:00:00 15.6 23 Oeste 34 Sudoeste 0 -- -- 58
2019-12-04 12:00:00 14.2 6 Nordeste 17 Noroeste 0 -- -- 74
2019-12-04 11:00:00 13 11 Noroeste 25 Noroeste 0 -- -- 80
2019-12-04 10:00:00 12.1 18 Oeste 28 Oeste 0 -- -- 86
2019-12-04 09:00:00 10.9 14 Oeste 23 Oeste 0 -- -- 94
2019-12-04 08:00:00 7.1 3 Este 5 Este 0 -- -- 95
2019-12-04 07:00:00 7.5 0 Calma 3 Nordeste 0 -- -- 94
2019-12-04 06:00:00 8.3 0 Calma 5 Sudeste 0 -- -- 95
2019-12-04 05:00:00 8.5 3 Este 5 Nordeste 0 -- -- 95
2019-12-04 04:00:00 9.1 3 Este 6 Este 0 -- -- 95
2019-12-04 03:00:00 9.2 3 Este 6 Este 0 -- -- 93
2019-12-04 02:00:00 9.9 2 Noroeste 5 Oeste 0 -- -- 92
2019-12-04 01:00:00 10 0 Calma 5 Noroeste 0 -- -- 91
2019-12-04 00:00:00 10.4 3 Este 8 Nordeste 0 -- -- 87
2019-12-03 23:00:00 11.3 0 Calma 7 Oeste 0 -- -- 84
2019-12-03 22:00:00 11.7 6 Oeste 10 Oeste 0 -- -- 83
2019-12-03 21:00:00 12.5 0 Calma 6 Noroeste 0 -- -- 81
2019-12-03 20:00:00 13.7 3 Oeste 8 Noroeste 0 -- -- 77
2019-12-03 19:00:00 14.6 4 Noroeste 13 Oeste 0 -- -- 75
2019-12-03 18:00:00 16.7 8 Oeste 14 Noroeste 0 -- -- 69
2019-12-03 17:00:00 17.8 7 Noroeste 16 Noroeste 0 -- -- 62
2019-12-03 16:00:00 18.3 0 Calma 16 Noroeste 0 -- -- 62
2019-12-03 15:00:00 17.5 5 Nordeste 15 Nordeste 0 -- -- 65
2019-12-03 14:00:00 16.4 5 Norte 13 Nordeste 0 -- -- 71
2019-12-03 13:00:00 14.8 2 Nordeste 20 Noroeste 0 -- -- 74
2019-12-03 12:00:00 14.6 9 Noroeste 18 Noroeste 0 -- -- 74
2019-12-03 11:00:00 13.2 7 Noroeste 15 Noroeste 0 -- -- 79
2019-12-03 10:00:00 10.7 4 Oeste 11 Noroeste 0 -- -- 91
2019-12-03 09:00:00 9.8 0 Calma 12 Oeste 0 -- -- 93
2019-12-03 08:00:00 9.6 3 Noroeste 8 Oeste 0 -- -- 93
2019-12-03 07:00:00 9.7 3 Noroeste 9 Noroeste 0 -- -- 93
2019-12-03 06:00:00 9.9 3 Noroeste 6 Noroeste 0 -- -- 93
2019-12-03 05:00:00 10.6 2 Noroeste 8 Noroeste 0 -- -- 91
2019-12-03 04:00:00 11.6 4 Norte 14 Nordeste 0.2 -- -- 91
2019-12-03 03:00:00 11.6 9 Nordeste 19 Este 1.6 -- -- 92
2019-12-03 02:00:00 11 2 Nordeste 26 Este 0 -- -- 87
2019-12-03 01:00:00 11.9 14 Nordeste 24 Este 0 -- -- 87
2019-12-03 00:00:00 11.1 2 Oeste 26 Este 0 -- -- 89
2019-12-02 23:00:00 11.7 17 Nordeste 24 Este 0 -- -- 90
2019-12-02 22:00:00 11.8 4 Nordeste 8 Sur 0.2 -- -- 94
2019-12-02 21:00:00 12 2 Sudeste 10 Este 1.6 -- -- 93
2019-12-02 20:00:00 12.1 6 Este 28 Este 1.6 -- -- 91
2019-12-02 19:00:00 12 8 Este 14 Este 0.2 -- -- 85
2019-12-02 18:00:00 12 11 Este 24 Este 0 -- -- 83
2019-12-02 17:00:00 12.2 19 Este 35 Este 0.2 -- -- 81
2019-12-02 16:00:00 12.7 25 Este 36 Este 0 -- -- 82
2019-12-02 15:00:00 13 20 Este 32 Este 1.2 -- -- 85
2019-12-02 14:00:00 14.6 15 Este 21 Este 0 -- -- 80
2019-12-02 13:00:00 12.6 7 Este 18 Este 0 -- -- 90
2019-12-02 12:00:00 11.8 12 Sudeste 22 Sudeste 0 -- -- 90
2019-12-02 11:00:00 11.6 7 Sudeste 13 Este 0 -- -- 95
2019-12-02 10:00:00 10.2 2 Sudeste 5 Sudeste 0.2 -- -- 97
2019-12-02 09:00:00 9.9 0 Calma -- -- 0 -- -- 97
2019-12-02 08:00:00 9.5 0 Calma 3 Sudoeste 0 -- -- 95
2019-12-02 07:00:00 10.1 0 Calma 2 Este 0 -- -- 96
2019-12-02 06:00:00 9.8 0 Calma 4 Oeste 0 -- -- 96
2019-12-02 05:00:00 9.7 0 Calma 3 Oeste 0 -- -- 95
2019-12-02 04:00:00 9.7 4 Este 10 Oeste 0 -- -- 95
2019-12-02 03:00:00 10.2 4 Oeste 7 Oeste 0 -- -- 95
2019-12-02 02:00:00 10 0 Calma 6 Nordeste 0 -- -- 93
2019-12-02 01:00:00 10.9 3 Oeste 10 Oeste 0 -- -- 91
2019-12-02 00:00:00 12.4 6 Oeste 13 Oeste 0 -- -- 88
2019-12-01 23:00:00 12.5 9 Oeste 14 Oeste 0 -- -- 90
2019-12-01 22:00:00 12.4 10 Oeste 13 Oeste 0 -- -- 90
2019-12-01 21:00:00 12.3 5 Oeste 10 Oeste 0 -- -- 92
2019-12-01 20:00:00 12.6 7 Oeste 13 Oeste 0 -- -- 90
2019-12-01 19:00:00 13.3 10 Oeste 14 Oeste 0 -- -- 89
2019-12-01 18:00:00 13.9 11 Oeste 24 Sudoeste 0.2 -- -- 90
2019-12-01 17:00:00 14.2 18 Oeste 27 Sudoeste 0.2 -- -- 89
2019-12-01 16:00:00 13.9 15 Oeste 31 Sudoeste 3.2 -- -- 91
2019-12-01 15:00:00 16 17 Oeste 37 Sudoeste 0 -- -- 71
2019-12-01 14:00:00 17.3 16 Oeste 35 Oeste 0 -- -- 62
2019-12-01 13:00:00 16.7 19 Oeste 30 Oeste 0 -- -- 66
2019-12-01 12:00:00 16.2 18 Oeste 28 Oeste 0 -- -- 68
2019-12-01 11:00:00 15.1 8 Noroeste 17 Oeste 0 -- -- 80
2019-12-01 10:00:00 14 7 Noroeste 12 Noroeste 0 -- -- 91
2019-12-01 09:00:00 13.1 9 Oeste 12 Oeste 0 -- -- 94
2019-12-01 08:00:00 13.2 8 Oeste 14 Noroeste 0 -- -- 91
2019-12-01 07:00:00 13.7 8 Oeste 12 Oeste 0 -- -- 92
2019-12-01 06:00:00 14.1 4 Oeste 18 Oeste 0 -- -- 92
2019-12-01 05:00:00 14.3 12 Oeste 17 Oeste 0.2 -- -- 93
2019-12-01 04:00:00 14.6 9 Oeste 24 Noroeste 0.6 -- -- 90
2019-12-01 03:00:00 15.1 14 Noroeste 31 Oeste 1.2 -- -- 91
2019-12-01 02:00:00 15.3 9 Sudoeste 15 Oeste 0 -- -- 89
2019-12-01 01:00:00 15.1 9 Oeste 14 Oeste 0 -- -- 88
2019-12-01 00:00:00 14.6 8 Oeste 12 Oeste 0 -- -- 87
2019-11-30 23:00:00 14.6 13 Oeste 17 Oeste 0 -- -- 87
2019-11-30 22:00:00 13.2 3 Sudoeste 8 Oeste 0 -- -- 89
2019-11-30 21:00:00 13.4 5 Oeste 10 Oeste 0 -- -- 86
2019-11-30 20:00:00 13.5 5 Oeste 12 Oeste 0 -- -- 81
2019-11-30 19:00:00 15.2 9 Oeste 16 Oeste 0 -- -- 73
2019-11-30 18:00:00 16.8 10 Oeste 26 Oeste 0 -- -- 66
2019-11-30 17:00:00 18.4 19 Oeste 26 Oeste 0 -- -- 61
2019-11-30 16:00:00 19.9 16 Noroeste 22 Noroeste 0 -- -- 58
2019-11-30 15:00:00 20.5 12 Noroeste 22 Oeste 0 -- -- 53
2019-11-30 14:00:00 20.2 9 Noroeste 17 Noroeste 0 -- -- 55
2019-11-30 13:00:00 18.8 10 Noroeste 18 Noroeste 0 -- -- 60
2019-11-30 12:00:00 16.9 3 Noroeste 10 Este 0 -- -- 69
2019-11-30 11:00:00 14.8 5 Nordeste 10 Norte 0 -- -- 77
2019-11-30 10:00:00 11.7 4 Este 6 Este 0 -- -- 93
2019-11-30 09:00:00 8.6 0 Calma 4 Noroeste 0 -- -- 97
2019-11-30 08:00:00 7.9 2 Oeste 4 Noroeste 0 -- -- 96
2019-11-30 07:00:00 7.8 2 Oeste 4 Noroeste 0 -- -- 94
2019-11-30 06:00:00 8.3 3 Oeste 5 Oeste 0 -- -- 93
2019-11-30 05:00:00 9.2 3 Oeste 4 Oeste 0 -- -- 95
2019-11-30 04:00:00 9.1 0 Calma 4 Este 0 -- -- 89
2019-11-30 03:00:00 9.9 3 Este 5 Sudeste 0 -- -- 92
2019-11-30 02:00:00 10.8 0 Calma 4 Este 0 -- -- 89
2019-11-30 01:00:00 11.5 0 Calma 4 Nordeste 0 -- -- 86
2019-11-30 00:00:00 12.4 3 Sudeste 10 Norte 0 -- -- 84
2019-11-29 23:00:00 13.8 4 Noroeste 8 Noroeste 0 -- -- 79
2019-11-29 22:00:00 14.1 3 Sudeste 13 Noroeste 0 -- -- 78
2019-11-29 21:00:00 15.1 8 Noroeste 15 Noroeste 0 -- -- 74
2019-11-29 20:00:00 16.1 6 Noroeste 13 Noroeste 0 -- -- 71
2019-11-29 19:00:00 17.1 6 Noroeste 17 Norte 0 -- -- 67
2019-11-29 18:00:00 18.5 9 Noroeste 23 Noroeste 0 -- -- 62
2019-11-29 17:00:00 20.3 12 Noroeste 23 Noroeste 0 -- -- 57
2019-11-29 16:00:00 21 11 Noroeste 23 Noroeste 0 -- -- 54
2019-11-29 15:00:00 20.6 14 Noroeste 27 Noroeste 0 -- -- 56
2019-11-29 14:00:00 20.2 13 Noroeste 27 Noroeste 0 -- -- 58
2019-11-29 13:00:00 19.4 12 Noroeste 23 Norte 0 -- -- 58
2019-11-29 12:00:00 18.4 10 Norte 23 Norte 0 -- -- 64
2019-11-29 11:00:00 16.6 11 Noroeste 21 Noroeste 0 -- -- 70
2019-11-29 10:00:00 15.1 7 Noroeste 18 Noroeste 0 -- -- 76
2019-11-29 09:00:00 13.3 9 Noroeste 16 Noroeste 0 -- -- 83
2019-11-29 08:00:00 12.5 7 Norte 12 Norte 0 -- -- 87
2019-11-29 07:00:00 12.9 6 Norte 14 Noroeste 0 -- -- 86
2019-11-29 06:00:00 12.1 6 Noroeste 13 Norte 0 -- -- 87
2019-11-29 05:00:00 12 6 Noroeste 11 Noroeste 0 -- -- 87
2019-11-29 04:00:00 11.6 5 Noroeste 9 Norte 0 -- -- 90
2019-11-29 03:00:00 11.8 4 Noroeste 10 Noroeste 0 -- -- 92
2019-11-29 02:00:00 11.9 6 Noroeste 9 Noroeste 0 -- -- 91
2019-11-29 01:00:00 12.6 6 Noroeste 10 Noroeste 0 -- -- 90
2019-11-29 00:00:00 13.1 3 Noroeste 13 Oeste 0 -- -- 88
2019-11-28 23:00:00 12.9 3 Noroeste 8 Noroeste 0 -- -- 89
2019-11-28 22:00:00 12.8 4 Norte 13 Oeste 0 -- -- 89
2019-11-28 21:00:00 13.6 7 Oeste 16 Oeste 0 -- -- 88
2019-11-28 20:00:00 14.4 14 Oeste 21 Oeste 0 -- -- 86
2019-11-28 19:00:00 15 14 Oeste 20 Oeste 0 -- -- 76
2019-11-28 18:00:00 16.9 14 Oeste 24 Noroeste 0 -- -- 70
2019-11-28 17:00:00 19.1 17 Oeste 25 Norte 0 -- -- 66
2019-11-28 16:00:00 20 9 Noroeste 20 Noroeste 0 -- -- 57
2019-11-28 15:00:00 19.1 13 Oeste 22 Oeste 0 -- -- 62
2019-11-28 14:00:00 19.6 9 Noroeste 18 Noroeste 0 -- -- 62
2019-11-28 13:00:00 18.2 5 Norte 13 Noroeste 0 -- -- 68
2019-11-28 12:00:00 15.3 3 Este 6 Sudeste 0 -- -- 97
2019-11-28 11:00:00 12.3 2 Sudeste 4 Este 0 -- -- 98
2019-11-28 10:00:00 10.7 0 Calma 3 Este 0 -- -- 97
2019-11-28 09:00:00 10.3 0 Calma 11 Este 0 -- -- 98
2019-11-28 08:00:00 10.2 0 Calma 3 Oeste 0 -- -- 97
2019-11-28 07:00:00 11 3 Oeste 5 Oeste 0.2 -- -- 97
2019-11-28 06:00:00 11.3 0 Calma 4 Oeste 0 -- -- 97
2019-11-28 05:00:00 11.1 0 Calma 4 Este 0 -- -- 97
2019-11-28 04:00:00 10.7 0 Calma 4 Oeste 0 -- -- 98
2019-11-28 03:00:00 10.3 0 Calma 5 Este 0.2 -- -- 97
2019-11-28 02:00:00 10.4 5 Este 6 Este 0 -- -- 96
2019-11-28 01:00:00 11 0 Calma 6 Este 0 -- -- 96
2019-11-28 00:00:00 12 4 Este 11 Oeste 0 -- -- 95
2019-11-27 23:00:00 13.2 10 Oeste 15 Oeste 0 -- -- 94
2019-11-27 22:00:00 13.5 3 Oeste 11 Oeste 0 -- -- 93
2019-11-27 21:00:00 14.7 11 Oeste 13 Oeste 0 -- -- 92
2019-11-27 20:00:00 14.8 10 Oeste 14 Oeste 0 -- -- 93
2019-11-27 19:00:00 14.8 12 Oeste 14 Oeste 0 -- -- 89
2019-11-27 18:00:00 16.5 13 Oeste 21 Oeste 0 -- -- 82
2019-11-27 17:00:00 17.6 15 Oeste 22 Oeste 0 -- -- 78
2019-11-27 16:00:00 17.9 14 Oeste 24 Oeste 0 -- -- 79
2019-11-27 15:00:00 18.5 13 Oeste 22 Oeste 0 -- -- 79
2019-11-27 14:00:00 18.9 17 Noroeste 25 Noroeste 0 -- -- 72
2019-11-27 06:00:00 -- -- -- -- -- -- -- -- --
2019-11-27 05:00:00 15.3 10 Oeste 23 Sudoeste 0 -- -- 92
2019-11-27 04:00:00 15.3 9 Oeste 21 Oeste 0.2 -- -- 94
2019-11-27 03:00:00 15.5 17 Oeste 28 Oeste 1 -- -- 93
2019-11-27 02:00:00 16.1 13 Sudoeste 27 Oeste 0.4 -- -- 92
2019-11-27 01:00:00 16.7 13 Oeste 25 Sudoeste 0 -- -- 89
2019-11-27 00:00:00 16.8 11 Sudoeste 25 Sudoeste 0 -- -- 90
2019-11-26 23:00:00 16.6 13 Sudoeste 22 Oeste 0 -- -- 90
2019-11-26 22:00:00 16.4 8 Sudoeste 18 Sudoeste 0 -- -- 92
2019-11-26 21:00:00 16.3 5 Oeste 16 Oeste 0 -- -- 92
2019-11-26 20:00:00 17 8 Oeste 17 Oeste 0 -- -- 91
2019-11-26 19:00:00 17.5 12 Oeste 22 Sudoeste 0 -- -- 89
2019-11-26 18:00:00 17.9 9 Oeste 20 Oeste 0 -- -- 87
2019-11-26 17:00:00 18 14 Oeste 26 Oeste 0 -- -- 85
2019-11-26 16:00:00 18.9 16 Oeste 24 Oeste 0 -- -- 79
2019-11-26 15:00:00 19 10 Oeste 24 Oeste 0 -- -- 82
2019-11-26 14:00:00 18.1 13 Oeste 23 Oeste 0 -- -- 89
2019-11-26 13:00:00 17.5 19 Oeste 30 Oeste 0.4 -- -- 93
2019-11-26 12:00:00 17.7 5 Oeste 12 Oeste 0 -- -- 92
2019-11-26 11:00:00 17.7 8 Oeste 12 Oeste 0 -- -- 89
2019-11-26 10:00:00 16.3 4 Sudeste 8 Este 0 -- -- 95
2019-11-26 09:00:00 15.2 0 Calma 5 Noroeste 0 -- -- 96
2019-11-26 08:00:00 15.1 0 Calma 4 Nordeste 0 -- -- 96
2019-11-26 07:00:00 15.2 5 Nordeste 6 Nordeste 0 -- -- 96
2019-11-26 06:00:00 15.5 5 Nordeste 7 Nordeste 0 -- -- 96
2019-11-26 05:00:00 16 3 Noroeste 11 Noroeste 0 -- -- 95
2019-11-26 04:00:00 16.4 4 Noroeste 14 Noroeste 0 -- -- 94
2019-11-26 03:00:00 16.8 9 Noroeste 17 Oeste 0 -- -- 93
2019-11-26 02:00:00 17 13 Oeste 23 Oeste 0 -- -- 93
2019-11-26 01:00:00 17.2 16 Oeste 22 Oeste 0 -- -- 92
2019-11-26 00:00:00 17 15 Oeste 25 Oeste 0 -- -- 93
2019-11-25 23:00:00 17 18 Oeste 25 Oeste 0 -- -- 92
2019-11-25 22:00:00 16.7 11 Oeste 17 Oeste 0 -- -- 92
2019-11-25 21:00:00 16.6 8 Oeste 20 Sudoeste 0 -- -- 91
2019-11-25 20:00:00 16.8 11 Sudoeste 18 Sudoeste 0 -- -- 87
2019-11-25 19:00:00 17.1 14 Oeste 24 Sudoeste 0 -- -- 85
2019-11-25 18:00:00 17.4 18 Oeste 30 Oeste 0 -- -- 82
2019-11-25 17:00:00 18 22 Oeste 34 Oeste 0 -- -- 79
2019-11-25 16:00:00 18.9 24 Oeste 33 Oeste 0 -- -- 74
2019-11-25 15:00:00 18.9 25 Oeste 33 Oeste 0 -- -- 73
2019-11-25 14:00:00 18.9 24 Oeste 32 Oeste 0 -- -- 72
2019-11-25 13:00:00 18.8 19 Oeste 29 Oeste 0 -- -- 73
2019-11-25 12:00:00 17.8 15 Oeste 25 Oeste 0 -- -- 78
2019-11-25 11:00:00 13.6 8 Este 10 Este 0 -- -- 89
2019-11-25 10:00:00 12 4 Este 6 Este 0 -- -- 90
2019-11-25 09:00:00 10.7 0 Calma 5 Este 0 -- -- 94
2019-11-25 08:00:00 10 2 Este 4 Este 0 -- -- 94
2019-11-25 07:00:00 9.6 0 Calma 4 Nordeste 0 -- -- 95
2019-11-25 06:00:00 8.8 3 Oeste 8 Nordeste 0 -- -- 95
2019-11-25 05:00:00 8.1 4 Este 5 Este 0 -- -- 96
2019-11-25 04:00:00 7.2 0 Calma 5 Este 0 -- -- 94
2019-11-25 03:00:00 7.7 0 Calma 3 Noroeste 0 -- -- 94
2019-11-25 02:00:00 8.2 0 Calma 4 Este 0 -- -- 93
2019-11-25 01:00:00 8.6 2 Oeste 3 Oeste 0 -- -- 94
2019-11-25 00:00:00 8.9 4 Este 6 Este 0 -- -- 93
2019-11-24 23:00:00 9.4 2 Noroeste 5 Noroeste 0 -- -- 89
2019-11-24 22:00:00 10.2 4 Este 6 Oeste 0 -- -- 89
2019-11-24 21:00:00 11.1 0 Calma 9 Oeste 0 -- -- 86
2019-11-24 20:00:00 11.5 8 Oeste 12 Oeste 0 -- -- 83
2019-11-24 19:00:00 12.1 6 Oeste 17 Oeste 0 -- -- 80
2019-11-24 18:00:00 14.3 12 Oeste 23 Noroeste 0 -- -- 66
2019-11-24 17:00:00 15.9 14 Oeste 24 Noroeste 0 -- -- 52
2019-11-24 16:00:00 16.4 15 Noroeste 27 Oeste 0 -- -- 55
2019-11-24 15:00:00 16.4 19 Oeste 28 Oeste 0 -- -- 61
2019-11-24 14:00:00 16.3 14 Noroeste 27 Oeste 0 -- -- 58
2019-11-24 13:00:00 15.7 11 Noroeste 21 Noroeste 0 -- -- 61
2019-11-24 12:00:00 14.4 10 Noroeste 17 Noroeste 0 -- -- 69
2019-11-24 11:00:00 12.1 2 Sudeste 6 Sudeste 0 -- -- 81
2019-11-24 10:00:00 10.1 3 Este 5 Este 0 -- -- 89
2019-11-24 09:00:00 7.2 3 Este 5 Este 0 -- -- 96
2019-11-24 08:00:00 6.5 2 Este 6 Oeste 0 -- -- 94
2019-11-24 07:00:00 6.7 2 Nordeste 6 Este 0 -- -- 93
2019-11-24 06:00:00 7.6 0 Calma 6 Nordeste 0 -- -- 92
2019-11-24 05:00:00 9 0 Calma 4 Noroeste 0 -- -- 88
2019-11-24 04:00:00 9.5 4 Noroeste 11 Oeste 0 -- -- 87
2019-11-24 03:00:00 9.7 3 Noroeste 12 Noroeste 0 -- -- 88
2019-11-24 02:00:00 9.8 6 Noroeste 12 Oeste 0 -- -- 87
2019-11-24 01:00:00 10.4 3 Noroeste 10 Oeste 0 -- -- 86
2019-11-24 00:00:00 10.9 7 Noroeste 10 Oeste 0 -- -- 88
2019-11-23 23:00:00 12.1 7 Oeste 20 Noroeste 0 -- -- 88
2019-11-23 22:00:00 12.5 12 Oeste 18 Oeste 0 -- -- 85
2019-11-23 21:00:00 13.1 14 Oeste 24 Oeste 0 -- -- 82
2019-11-23 20:00:00 13.8 20 Oeste 34 Oeste 0 -- -- 79
2019-11-23 19:00:00 14 19 Oeste 31 Oeste 0 -- -- 75
2019-11-23 18:00:00 14.5 20 Oeste 31 Noroeste 0 -- -- 74
2019-11-23 17:00:00 15.6 26 Oeste 40 Oeste 0 -- -- 64
2019-11-23 16:00:00 15.8 29 Oeste 44 Oeste 0 -- -- 64
2019-11-23 15:00:00 16.1 30 Oeste 43 Oeste 0 -- -- 65
2019-11-23 14:00:00 16 29 Oeste 42 Oeste 0 -- -- 67
2019-11-23 13:00:00 16 27 Oeste 41 Oeste 0 -- -- 67
2019-11-23 12:00:00 15.8 26 Oeste 49 Oeste 0 -- -- 69
2019-11-23 11:00:00 14.4 23 Oeste 40 Noroeste 0 -- -- 74
2019-11-23 10:00:00 14.3 17 Oeste 27 Noroeste 0 -- -- 81
2019-11-23 09:00:00 13.3 15 Noroeste 33 Oeste 0 -- -- 84
2019-11-23 08:00:00 12.9 23 Oeste 40 Noroeste 0 -- -- 86
2019-11-23 07:00:00 13.3 28 Noroeste 45 Noroeste 0.8 -- -- 81
2019-11-23 06:00:00 15 24 Oeste 40 Oeste 0 -- -- 80
2019-11-23 05:00:00 15.3 27 Oeste 43 Oeste 0 -- -- 75
2019-11-23 04:00:00 15.2 23 Oeste 40 Oeste 0 -- -- 75
2019-11-23 03:00:00 15.2 21 Oeste 44 Oeste 0 -- -- 79
2019-11-23 02:00:00 15.4 23 Oeste 42 Oeste 0 -- -- 80
2019-11-23 01:00:00 15.7 28 Oeste 45 Oeste 0 -- -- 80
2019-11-23 00:00:00 15.4 16 Oeste 46 Noroeste 0 -- -- 83
2019-11-22 23:00:00 15.6 25 Oeste 41 Oeste 0 -- -- 80
2019-11-22 22:00:00 15.4 15 Noroeste 55 Oeste 0 -- -- 82
2019-11-22 21:00:00 16.3 30 Oeste 63 Oeste 6.6 -- -- 90
2019-11-22 20:00:00 17.6 39 Oeste 61 Sudoeste 2.4 -- -- 93
2019-11-22 19:00:00 17.6 36 Oeste 63 Sudoeste 1.4 -- -- 92
2019-11-22 18:00:00 17.8 29 Oeste 51 Sudoeste 0 -- -- 90
2019-11-22 17:00:00 17.8 26 Sudoeste 53 Sudoeste 0.4 -- -- 90
2019-11-22 16:00:00 18 21 Sudoeste 48 Sudoeste 0 -- -- 89
2019-11-22 15:00:00 17.9 25 Sudoeste 45 Sudoeste 0.2 -- -- 90
2019-11-22 14:00:00 17.1 22 Sudoeste 49 Sudoeste 1.2 -- -- 93
2019-11-22 13:00:00 16.8 23 Sudoeste 47 Sudoeste 0.2 -- -- 93
2019-11-22 12:00:00 17.1 20 Sudoeste 38 Sur 0 -- -- 92
2019-11-22 11:00:00 17.4 18 Sudoeste 33 Sudoeste 0 -- -- 92
2019-11-22 10:00:00 16.6 9 Sudoeste 23 Sur 0 -- -- 94
2019-11-22 09:00:00 16.1 11 Sudoeste 33 Sudoeste 0 -- -- 92
2019-11-22 08:00:00 16.6 19 Oeste 33 Oeste 0.2 -- -- 94
2019-11-22 07:00:00 16.3 21 Oeste 47 Oeste 0.6 -- -- 92
2019-11-22 06:00:00 16.4 21 Oeste 33 Oeste 0.6 -- -- 93
2019-11-22 05:00:00 16.1 7 Sudoeste 20 Sudoeste 0 -- -- 94
2019-11-22 04:00:00 16 13 Sudoeste 28 Sudoeste 0.4 -- -- 93
2019-11-22 03:00:00 16 12 Sudoeste 30 Sudoeste 0.2 -- -- 93
2019-11-22 02:00:00 15.8 12 Sudoeste 26 Sudoeste 0.4 -- -- 93
2019-11-22 01:00:00 15.5 13 Sudoeste 25 Sudoeste 0 -- -- 94
2019-11-22 00:00:00 15.3 10 Sur 24 Sudoeste 1 -- -- 93
2019-11-21 23:00:00 15.3 6 Sudoeste 17 Sur 0.4 -- -- 91
2019-11-21 22:00:00 15.3 8 Sudoeste 16 Sur 0 -- -- 91
2019-11-21 21:00:00 15.2 8 Sudoeste 18 Oeste 0 -- -- 93
2019-11-21 20:00:00 14.9 9 Sudoeste 20 Sudoeste 0 -- -- 93
2019-11-21 19:00:00 15 10 Sudoeste 21 Sudoeste 0 -- -- 92
2019-11-21 18:00:00 15 10 Sudoeste 17 Sudoeste 0 -- -- 93
2019-11-21 17:00:00 14.9 13 Oeste 30 Oeste 0 -- -- 91
2019-11-21 16:00:00 14.9 21 Oeste 36 Sudoeste 4.2 -- -- 92
2019-11-21 15:00:00 15.4 9 Sudoeste 27 Sur 1.6 -- -- 89
2019-11-21 14:00:00 16.5 13 Sudoeste 30 Sudoeste 0 -- -- 85
2019-11-21 13:00:00 16.9 15 Sudoeste 29 Sudoeste 0.2 -- -- 82
2019-11-21 12:00:00 16.1 10 Sudoeste 22 Sur 0 -- -- 88
2019-11-21 11:00:00 14.9 6 Sudeste 11 Sudeste 0.8 -- -- 93
2019-11-21 10:00:00 14.4 6 Sur 15 Oeste 1 -- -- 91
2019-11-21 09:00:00 14.6 5 Sudoeste 21 Oeste 0 -- -- 93
2019-11-21 08:00:00 14.2 10 Oeste 21 Oeste 4.4 -- -- 93
2019-11-21 07:00:00 14.3 9 Oeste 16 Sudoeste 4.8 -- -- 93
2019-11-21 06:00:00 14.3 10 Sudoeste 33 Sur 0.4 -- -- 92
2019-11-21 05:00:00 13.9 10 Sudoeste 20 Sudoeste 0 -- -- 91
2019-11-21 04:00:00 13.1 6 Sudoeste 14 Sur 0 -- -- 94
2019-11-21 03:00:00 11.6 3 Sudeste 9 Norte 0.2 -- -- 96
2019-11-21 02:00:00 11.3 5 Este 7 Este 0.2 -- -- 96
2019-11-21 01:00:00 10.7 0 Calma 7 Este 2 -- -- 95
2019-11-21 00:00:00 10.5 3 Este 5 Este 0 -- -- 94
2019-11-20 23:00:00 10.5 3 Sudeste 5 Sudeste 0 -- -- 96
2019-11-20 22:00:00 10.3 0 Calma 3 Sudeste 0 -- -- 96
2019-11-20 21:00:00 10.3 3 Este 6 Este 0 -- -- 95
2019-11-20 20:00:00 11.2 6 Nordeste 13 Sur 0 -- -- 92
2019-11-20 19:00:00 12.6 8 Sur 21 Sur 0 -- -- 92
2019-11-20 18:00:00 12.8 9 Sur 24 Sur 0 -- -- 88
2019-11-20 17:00:00 12.9 13 Sur 26 Sudeste 0 -- -- 88
2019-11-20 16:00:00 12.7 13 Sudeste 29 Sudoeste 1 -- -- 91
2019-11-20 15:00:00 12.7 17 Sur 43 Sur 0.6 -- -- 87
2019-11-20 14:00:00 13.2 22 Sur 38 Sudoeste 0.2 -- -- 88
2019-11-20 13:00:00 13.7 15 Sur 27 Sudeste 0 -- -- 87
2019-11-20 12:00:00 12.6 11 Sur 36 Sur 0 -- -- 89
2019-11-20 11:00:00 11.2 10 Sur 24 Sur 1.6 -- -- 96
2019-11-20 10:00:00 8.8 3 Este 5 Este 0 -- -- 96
2019-11-20 09:00:00 7.2 2 Sur 7 Sudeste 1.8 -- -- 97
2019-11-20 08:00:00 5.6 0 Calma 4 Nordeste 0 -- -- 96
2019-11-20 07:00:00 4.4 0 Calma 3 Este 0 -- -- 96
2019-11-20 06:00:00 3.6 0 Calma 4 Este 0 -- -- 94
2019-11-20 05:00:00 4 0 Calma 4 Este 0 -- -- 93
2019-11-20 04:00:00 4.4 0 Calma 3 Nordeste 0 -- -- 92
2019-11-20 03:00:00 4.7 0 Calma 3 Este 0 -- -- 91
2019-11-20 02:00:00 5.4 0 Calma 7 Noroeste 0 -- -- 90
2019-11-20 01:00:00 6.2 4 Noroeste 6 Oeste 0 -- -- 87
2019-11-20 00:00:00 7.9 4 Noroeste 9 Oeste 0 -- -- 84
2019-11-19 23:00:00 8.4 2 Oeste 5 Este 0 -- -- 80
2019-11-19 22:00:00 10.5 2 Oeste 10 Oeste 0 -- -- 73
2019-11-19 21:00:00 11.3 4 Oeste 10 Oeste 0 -- -- 75
2019-11-19 20:00:00 12.4 3 Oeste 5 Noroeste 0 -- -- 77
2019-11-19 19:00:00 13.4 3 Oeste 5 Sur 0 -- -- 74
2019-11-19 18:00:00 14.4 4 Sur 12 Sur 0 -- -- 70
2019-11-19 17:00:00 14.9 8 Sudoeste 17 Sudoeste 0 -- -- 67
2019-11-19 16:00:00 15.3 13 Sudoeste 24 Oeste 0 -- -- 63
2019-11-19 15:00:00 15.5 13 Sudoeste 23 Oeste 0 -- -- 64
2019-11-19 14:00:00 15.7 11 Oeste 20 Oeste 0 -- -- 55
2019-11-19 13:00:00 15.5 12 Oeste 23 Oeste 0 -- -- 56
2019-11-19 12:00:00 15.3 11 Sudeste 17 Sudeste 0 -- -- 76
2019-11-19 11:00:00 11.6 5 Este 8 Este 0 -- -- 87
2019-11-19 10:00:00 7.8 0 Calma 6 Este 0 -- -- 96
2019-11-19 09:00:00 4.2 0 Calma 4 Este 0 -- -- 97
2019-11-19 08:00:00 3.8 3 Este 4 Este 0 -- -- 96
2019-11-19 07:00:00 4.3 2 Este 4 Este 0 -- -- 97
2019-11-19 06:00:00 4.3 0 Calma 2 Este 0 -- -- 95
2019-11-19 05:00:00 4.4 0 Calma 4 Nordeste 0 -- -- 95
2019-11-19 04:00:00 4.5 3 Oeste 4 Oeste 0 -- -- 94
2019-11-19 03:00:00 5.3 0 Calma 4 Noroeste 0 -- -- 93
2019-11-19 02:00:00 5.8 2 Oeste 6 Este 0 -- -- 93
2019-11-19 01:00:00 6.5 2 Nordeste 5 Este 0 -- -- 91
2019-11-19 00:00:00 7.5 0 Calma 5 Noroeste 0 -- -- 89
2019-11-18 23:00:00 8.5 2 Sur 11 Este 0 -- -- 87
2019-11-18 22:00:00 9.9 5 Este 22 Oeste 0 -- -- 81
2019-11-18 21:00:00 10.8 18 Oeste 22 Oeste 0 -- -- 79
2019-11-18 20:00:00 10.2 14 Oeste 18 Oeste 0 -- -- 79
2019-11-18 19:00:00 11.9 16 Oeste 23 Oeste 0 -- -- 72
2019-11-18 18:00:00 13.4 18 Oeste 23 Oeste 0 -- -- 67
2019-11-18 17:00:00 15.5 12 Noroeste 23 Noroeste 0 -- -- 57
2019-11-18 16:00:00 15.8 9 Noroeste 23 Oeste 0 -- -- 56
2019-11-18 15:00:00 14.6 12 Noroeste 24 Noroeste 0 -- -- 60
2019-11-18 14:00:00 14.6 13 Noroeste 26 Norte 0 -- -- 57
2019-11-18 13:00:00 14 14 Noroeste 28 Noroeste 0 -- -- 60
2019-11-18 12:00:00 13.1 14 Noroeste 28 Noroeste 0 -- -- 66
2019-11-18 11:00:00 11.6 15 Noroeste 35 Noroeste 0 -- -- 75
2019-11-18 10:00:00 10.2 22 Noroeste 34 Noroeste 0 -- -- 78
2019-11-18 09:00:00 8.9 23 Noroeste 36 Noroeste 0 -- -- 81
2019-11-18 08:00:00 8.5 22 Noroeste 39 Noroeste 0 -- -- 82
2019-11-18 07:00:00 9.1 27 Noroeste 38 Noroeste 0 -- -- 80
2019-11-18 06:00:00 10.2 29 Noroeste 44 Noroeste 0 -- -- 75
2019-11-18 05:00:00 11.9 10 Noroeste 40 Noroeste 0 -- -- 82
2019-11-18 04:00:00 14.1 24 Noroeste 48 Oeste 3.4 -- -- 80
2019-11-18 03:00:00 14.7 21 Oeste 48 Oeste 1 -- -- 87
2019-11-18 02:00:00 15.4 21 Oeste 34 Oeste 0.2 -- -- 86
2019-11-18 01:00:00 15.4 20 Oeste 32 Oeste 0 -- -- 86
2019-11-18 00:00:00 15.2 19 Oeste 34 Oeste 0 -- -- 86
2019-11-17 23:00:00 14.9 14 Oeste 27 Oeste 0 -- -- 88
2019-11-17 22:00:00 14.8 13 Oeste 20 Oeste 0 -- -- 88
2019-11-17 21:00:00 14.9 10 Oeste 18 Sudoeste 0 -- -- 88
2019-11-17 20:00:00 15.2 12 Oeste 28 Sudoeste 0 -- -- 90
2019-11-17 19:00:00 15.1 12 Oeste 22 Sudoeste 0 -- -- 90
2019-11-17 18:00:00 15.5 14 Oeste 30 Oeste 0 -- -- 88
2019-11-17 17:00:00 15.5 17 Sudoeste 32 Oeste 0 -- -- 89
2019-11-17 16:00:00 14.7 15 Sudoeste 32 Oeste 0 -- -- 92
2019-11-17 15:00:00 13.9 17 Sudoeste 32 Sudoeste 0.4 -- -- 92
2019-11-17 14:00:00 13.2 13 Sudoeste 24 Sudoeste 0.6 -- -- 90
2019-11-17 13:00:00 13.2 17 Sudoeste 29 Sudoeste 0 -- -- 85
2019-11-17 12:00:00 9.9 7 Sudeste 10 Sudeste 0 -- -- 77
2019-11-17 11:00:00 8.7 5 Este 8 Este 0 -- -- 81
2019-11-17 10:00:00 6.6 6 Este 8 Este 0 -- -- 88
2019-11-17 09:00:00 3.9 0 Calma 5 Este 0 -- -- 95
2019-11-17 08:00:00 2 4 Este 5 Este 0 -- -- 95
2019-11-17 07:00:00 1.5 0 Calma 0 Calma 0 -- -- 92
2019-11-17 06:00:00 2.3 0 Calma 3 Oeste 0 -- -- 94
2019-11-17 05:00:00 2.4 0 Calma 4 Oeste 0 -- -- 89
2019-11-17 04:00:00 3.1 3 Oeste 6 Oeste 0 -- -- 94
2019-11-17 03:00:00 2.5 0 Calma 4 Noroeste 0 -- -- 90
2019-11-17 02:00:00 3 2 Oeste 3 Oeste 0 -- -- 88
2019-11-17 01:00:00 3.6 0 Calma 3 Noroeste 0 -- -- 88
2019-11-17 00:00:00 4.3 0 Calma 3 Noroeste 0 -- -- 83
2019-11-16 23:00:00 5.3 0 Calma 5 Sudeste 0 -- -- 81
2019-11-16 22:00:00 6.2 4 Sudeste 12 Oeste 0 -- -- 79
2019-11-16 21:00:00 8.1 12 Oeste 16 Oeste 0 -- -- 74
2019-11-16 20:00:00 8.1 13 Oeste 14 Oeste 0 -- -- 73
2019-11-16 19:00:00 9.4 13 Oeste 19 Oeste 0 -- -- 66
2019-11-16 18:00:00 11.6 14 Oeste 24 Oeste 0 -- -- 57
2019-11-16 17:00:00 13.3 17 Oeste 29 Oeste 0 -- -- 52
2019-11-16 16:00:00 14 21 Oeste 29 Oeste 0 -- -- 49
2019-11-16 15:00:00 14.4 14 Noroeste 25 Noroeste 0 -- -- 42
2019-11-16 14:00:00 13.5 12 Noroeste 27 Oeste 0 -- -- 45
2019-11-16 13:00:00 12.6 10 Noroeste 21 Noroeste 0 -- -- 49
2019-11-16 12:00:00 11.2 6 Norte 18 Noroeste 0 -- -- 55
2019-11-16 11:00:00 9.1 9 Oeste 14 Oeste 0 -- -- 62
2019-11-16 10:00:00 6.7 0 Calma 4 Este 0 -- -- 76
2019-11-16 09:00:00 3.6 4 Este 6 Este 0 -- -- 84
2019-11-16 08:00:00 3.8 0 Calma 10 Noroeste 0 -- -- 81
2019-11-16 07:00:00 4.9 5 Noroeste 14 Noroeste 0 -- -- 78
2019-11-16 06:00:00 4.8 2 Norte 18 Noroeste 0 -- -- 77
2019-11-16 05:00:00 5.4 5 Noroeste 18 Noroeste 0 -- -- 74
2019-11-16 04:00:00 5.7 2 Noroeste 20 Oeste 0 -- -- 70
2019-11-16 03:00:00 6.5 12 Noroeste 22 Oeste 0 -- -- 67
2019-11-16 02:00:00 7.5 17 Noroeste 23 Noroeste 0 -- -- 64
2019-11-16 01:00:00 7.4 9 Oeste 22 Oeste 0 -- -- 65
2019-11-16 00:00:00 8.3 13 Oeste 23 Oeste 0 -- -- 63